createdAt,value
2019-02-08T00:04:31.502Z,28.47
2019-02-08T00:07:12.873Z,25.97
2019-02-08T00:09:54.236Z,25.07
2019-02-08T00:12:35.578Z,24.23
2019-02-08T00:15:44.587Z,31.30
2019-02-08T00:18:32.865Z,30.57
2019-02-08T00:21:14.109Z,27.27
2019-02-08T00:23:55.350Z,24.73
2019-02-08T00:26:36.854Z,21.90
2019-02-08T00:29:18.108Z,19.77
2019-02-08T00:31:57.507Z,19.53
2019-02-08T00:34:45.271Z,25.70
2019-02-08T00:37:26.803Z,23.40
2019-02-08T00:40:07.494Z,28.50
2019-02-08T00:42:36.604Z,27.00
2019-02-08T00:45:24.853Z,27.87
2019-02-08T00:51:19.536Z,22.47
2019-02-08T00:54:00.303Z,22.20
2019-02-08T00:56:41.683Z,29.53
2019-02-08T00:59:22.943Z,25.13
2019-02-08T01:02:04.082Z,25.80
2019-02-08T01:04:45.632Z,16.80
2019-02-08T01:07:15.371Z,20.90
2019-02-08T01:10:05.292Z,19.90
2019-02-08T01:12:55.652Z,17.20
2019-02-08T01:15:37.241Z,22.60
2019-02-08T01:18:17.856Z,15.77
2019-02-08T01:20:59.269Z,12.60
2019-02-08T01:23:41.488Z,12.40
2019-02-08T01:26:22.143Z,15.60
2019-02-08T01:29:02.992Z,26.83
2019-02-08T01:31:43.955Z,23.13
2019-02-08T01:34:24.501Z,24.07
2019-02-08T01:37:05.287Z,26.50
2019-02-08T01:39:45.875Z,22.37
2019-02-08T01:42:26.401Z,14.63
2019-02-08T01:45:08.410Z,34.30
2019-02-08T01:47:49.824Z,24.70
2019-02-08T01:53:29.288Z,21.10
2019-02-08T01:56:09.753Z,27.13
2019-02-08T02:01:32.610Z,19.60
2019-02-08T02:04:20.923Z,19.87
2019-02-08T02:07:01.999Z,19.57
2019-02-08T02:09:43.626Z,23.70
2019-02-08T02:15:23.214Z,23.80
2019-02-08T02:18:03.804Z,28.50
2019-02-08T02:20:44.679Z,27.13
2019-02-08T02:23:25.087Z,30.77
2019-02-08T02:26:06.178Z,26.07
2019-02-08T02:28:46.741Z,27.17
2019-02-08T02:31:30.322Z,24.63
2019-02-08T02:34:00.241Z,24.43
2019-02-08T02:36:48.477Z,28.87
2019-02-08T02:39:28.979Z,32.53
2019-02-08T02:42:10.110Z,33.70
2019-02-08T02:44:51.099Z,33.37
2019-02-08T02:47:33.210Z,29.97
2019-02-08T02:50:15.528Z,26.37
2019-02-08T02:52:56.443Z,37.90
2019-02-08T02:55:37.736Z,25.07
2019-02-08T02:58:18.539Z,39.00
2019-02-08T03:00:59.305Z,23.37
2019-02-08T03:03:40.638Z,24.03
2019-02-08T03:06:19.952Z,27.80
2019-02-08T03:12:16.706Z,35.10
2019-02-08T03:14:57.499Z,29.27
2019-02-08T03:17:40.750Z,35.00
2019-02-08T03:20:22.200Z,33.27
2019-02-08T03:23:03.358Z,30.10
2019-02-08T03:25:44.834Z,33.97
2019-02-08T03:28:25.384Z,32.17
2019-02-08T03:31:05.985Z,24.23
2019-02-08T03:33:47.037Z,31.97
2019-02-08T03:36:27.729Z,28.10
2019-02-08T03:39:08.267Z,23.77
2019-02-08T03:41:48.785Z,22.87
2019-02-08T03:44:29.588Z,18.50
2019-02-08T03:47:12.066Z,31.40
2019-02-08T03:49:52.654Z,21.57
2019-02-08T03:52:33.601Z,31.10
2019-02-08T03:55:14.460Z,30.50
2019-02-08T03:57:44.420Z,32.97
2019-02-08T04:03:39.734Z,30.13
2019-02-08T04:06:20.449Z,30.47
2019-02-08T04:09:03.831Z,22.17
2019-02-08T04:11:44.969Z,21.77
2019-02-08T04:16:53.734Z,22.07
2019-02-08T04:19:42.046Z,19.67
2019-02-08T04:22:30.702Z,10.97
2019-02-08T04:25:19.175Z,24.30
2019-02-08T04:28:07.526Z,28.83
2019-02-08T04:30:55.941Z,27.33
2019-02-08T04:33:44.262Z,23.33
2019-02-08T04:36:34.768Z,25.73
2019-02-08T04:39:23.013Z,35.10
2019-02-08T04:41:52.467Z,27.77
2019-02-08T04:44:40.789Z,23.60
2019-02-08T04:47:22.202Z,23.20
2019-02-08T04:50:04.535Z,24.43
2019-02-08T04:52:45.345Z,16.90
2019-02-08T04:55:25.928Z,20.93
2019-02-08T04:58:06.489Z,14.73
2019-02-08T05:00:47.055Z,24.23
2019-02-08T05:03:28.697Z,29.70
2019-02-08T05:06:11.351Z,24.80
2019-02-08T05:08:52.325Z,21.70
2019-02-08T05:11:33.038Z,19.27
2019-02-08T05:14:14.031Z,23.97
2019-02-08T05:16:55.058Z,21.03
2019-02-08T05:19:35.725Z,20.37
2019-02-08T05:22:17.468Z,22.73
2019-02-08T05:25:00.460Z,20.40
2019-02-08T05:27:45.172Z,20.30
2019-02-08T05:30:25.937Z,24.37
2019-02-08T05:33:06.481Z,19.77
2019-02-08T05:35:36.084Z,19.80
2019-02-08T05:38:05.514Z,25.87
2019-02-08T05:40:34.682Z,20.60
2019-02-08T05:46:23.411Z,21.93
2019-02-08T05:49:04.849Z,22.20
2019-02-08T05:51:45.488Z,22.83
2019-02-08T05:54:26.291Z,25.50
2019-02-08T05:57:07.028Z,20.23
2019-02-08T05:59:48.666Z,15.97
2019-02-08T06:02:29.364Z,12.33
2019-02-08T06:05:10.543Z,17.73
2019-02-08T06:07:51.585Z,21.90
2019-02-08T06:13:44.950Z,20.67
2019-02-08T06:16:26.353Z,25.37
2019-02-08T06:19:07.771Z,22.90
2019-02-08T06:21:56.112Z,26.63
2019-02-08T06:24:37.533Z,21.90
2019-02-08T06:27:18.281Z,27.17
2019-02-08T06:30:00.921Z,26.80
2019-02-08T06:32:42.391Z,14.23
2019-02-08T06:35:23.748Z,24.17
2019-02-08T06:40:47.349Z,19.83
2019-02-08T06:43:35.739Z,23.90
2019-02-08T06:46:04.947Z,26.10
2019-02-08T06:48:45.580Z,23.47
2019-02-08T06:51:27.256Z,20.67
2019-02-08T06:54:08.330Z,24.60
2019-02-08T06:57:07.957Z,28.10
2019-02-08T07:00:08.219Z,23.77
2019-02-08T07:03:08.585Z,28.13
2019-02-08T07:05:57.339Z,16.33
2019-02-08T07:09:04.698Z,27.43
2019-02-08T07:12:04.521Z,25.63
2019-02-08T07:15:04.617Z,34.47
2019-02-08T07:18:04.806Z,17.90
2019-02-08T07:21:04.806Z,21.90
2019-02-08T07:24:05.225Z,27.43
2019-02-08T07:26:53.537Z,25.90
2019-02-08T07:30:00.947Z,26.97
2019-02-08T07:35:59.821Z,28.57
2019-02-08T07:38:48.582Z,26.77
2019-02-08T07:41:37.703Z,29.50
2019-02-08T07:47:52.872Z,27.70
2019-02-08T07:50:47.454Z,32.80
2019-02-08T07:53:50.424Z,29.63
2019-02-08T07:56:56.614Z,28.10
2019-02-08T07:59:55.376Z,26.93
2019-02-08T08:02:54.646Z,30.50
2019-02-08T08:05:54.560Z,31.70
2019-02-08T08:08:54.844Z,23.50
2019-02-08T08:11:43.098Z,35.10
2019-02-08T08:14:32.812Z,26.87
2019-02-08T08:17:40.159Z,32.37
2019-02-08T08:23:52.298Z,26.23
2019-02-08T08:27:00.270Z,28.20
2019-02-08T08:30:00.282Z,38.50
2019-02-08T08:32:50.775Z,20.97
2019-02-08T08:35:32.181Z,21.33
2019-02-08T08:38:33.761Z,31.10
2019-02-08T08:41:15.670Z,26.07
2019-02-08T08:43:56.951Z,18.97
2019-02-08T08:46:38.362Z,21.27
2019-02-08T08:49:18.929Z,25.57
2019-02-08T08:52:00.958Z,28.00
2019-02-08T08:54:42.186Z,26.73
2019-02-08T08:57:23.073Z,21.77
2019-02-08T09:00:05.664Z,24.97
2019-02-08T09:02:46.893Z,24.20
2019-02-08T09:05:28.237Z,22.50
2019-02-08T09:08:09.550Z,22.13
2019-02-08T09:10:51.004Z,20.60
2019-02-08T09:13:58.656Z,22.07
2019-02-08T09:16:40.123Z,21.07
2019-02-08T09:19:21.330Z,22.30
2019-02-08T09:22:02.470Z,23.87
2019-02-08T09:24:43.109Z,29.27
2019-02-08T09:27:34.792Z,24.70
2019-02-08T09:30:30.591Z,23.43
2019-02-08T09:36:35.967Z,23.47
2019-02-08T09:39:18.701Z,20.30
2019-02-08T09:41:59.248Z,21.97
2019-02-08T09:47:52.197Z,25.00
2019-02-08T09:50:33.571Z,24.17
2019-02-08T09:53:14.905Z,26.47
2019-02-08T09:55:57.746Z,19.90
2019-02-08T09:58:58.606Z,17.50
2019-02-08T10:01:39.202Z,21.80
2019-02-08T10:04:46.609Z,21.77
2019-02-08T10:07:54.075Z,24.83
2019-02-08T10:10:35.242Z,23.93
2019-02-08T10:13:17.150Z,25.13
2019-02-08T10:15:58.593Z,18.37
2019-02-08T10:18:39.814Z,18.40
2019-02-08T10:21:20.456Z,18.97
2019-02-08T10:27:44.699Z,18.57
2019-02-08T10:30:25.694Z,21.07
2019-02-08T10:33:33.090Z,15.53
2019-02-08T10:36:40.511Z,29.07
2019-02-08T10:39:48.710Z,22.23
2019-02-08T10:42:56.355Z,18.00
2019-02-08T10:45:38.053Z,9.40
2019-02-08T10:48:19.075Z,13.67
2019-02-08T10:50:59.803Z,17.67
2019-02-08T10:53:41.938Z,15.17
2019-02-08T10:56:22.659Z,16.60
2019-02-08T10:59:09.241Z,17.70
2019-02-08T11:01:45.822Z,19.63
2019-02-08T11:04:27.050Z,16.13
2019-02-08T11:07:08.127Z,17.57
2019-02-08T11:09:49.680Z,22.23
2019-02-08T11:12:48.527Z,13.53
2019-02-08T11:15:55.954Z,21.43
2019-02-08T11:18:37.257Z,23.33
2019-02-08T11:21:06.582Z,16.87
2019-02-08T11:23:55.164Z,17.33
2019-02-08T11:26:43.442Z,19.67
2019-02-08T11:29:24.776Z,18.13
2019-02-08T11:31:54.154Z,11.60
2019-02-08T11:34:23.256Z,11.27
2019-02-08T11:36:52.405Z,14.80
2019-02-08T11:39:43.241Z,17.13
2019-02-08T11:42:12.467Z,17.63
2019-02-08T11:45:00.724Z,15.63
2019-02-08T11:47:41.294Z,17.40
2019-02-08T11:50:14.601Z,21.13
2019-02-08T11:56:07.647Z,11.47
2019-02-08T11:58:55.361Z,16.47
2019-02-08T12:01:40.568Z,17.43
2019-02-08T12:04:21.449Z,12.57
2019-02-08T12:07:02.856Z,11.93
2019-02-08T12:09:31.982Z,17.83
2019-02-08T12:12:20.999Z,15.07
2019-02-08T12:18:18.770Z,14.00
2019-02-08T12:21:00.028Z,10.83
2019-02-08T12:23:41.553Z,11.93
2019-02-08T12:26:23.967Z,11.53
2019-02-08T12:29:05.951Z,13.53
2019-02-08T12:31:47.257Z,10.67
2019-02-08T12:34:27.985Z,16.73
2019-02-08T12:37:08.721Z,13.57
2019-02-08T12:39:37.871Z,12.60
2019-02-08T12:42:46.026Z,21.00
2019-02-08T12:45:27.054Z,11.93
2019-02-08T12:48:08.018Z,10.33
2019-02-08T12:50:49.370Z,11.70
2019-02-08T12:53:31.441Z,16.93
2019-02-08T12:56:12.241Z,11.17
2019-02-08T12:58:57.040Z,17.87
2019-02-08T13:01:40.028Z,12.80
2019-02-08T13:04:20.596Z,20.40
2019-02-08T13:10:25.920Z,7.97
2019-02-08T13:13:26.309Z,9.47
2019-02-08T13:16:07.817Z,10.17
2019-02-08T13:18:48.935Z,12.27
2019-02-08T13:21:30.312Z,15.77
2019-02-08T13:24:11.591Z,16.10
2019-02-08T13:26:55.256Z,9.47
2019-02-08T13:32:56.093Z,13.00
2019-02-08T13:35:37.565Z,12.50
2019-02-08T13:41:21.366Z,17.67
2019-02-08T13:44:02.661Z,12.30
2019-02-08T13:46:43.265Z,15.23
2019-02-08T13:49:24.579Z,11.00
2019-02-08T13:52:05.755Z,12.97
2019-02-08T13:54:46.735Z,10.93
2019-02-08T13:57:17.374Z,17.97
2019-02-08T13:59:46.474Z,8.60
2019-02-08T14:02:35.433Z,15.03
2019-02-08T14:08:23.840Z,11.77
2019-02-08T14:11:08.770Z,9.63
2019-02-08T14:13:40.610Z,11.40
2019-02-08T14:16:29.590Z,9.47
2019-02-08T14:19:10.373Z,19.23
2019-02-08T14:21:52.734Z,16.03
2019-02-08T14:25:01.811Z,11.17
2019-02-08T14:27:50.657Z,9.87
2019-02-08T14:30:31.511Z,10.17
2019-02-08T14:33:16.158Z,9.77
2019-02-08T14:35:56.958Z,15.00
2019-02-08T14:38:40.227Z,10.10
2019-02-08T14:41:21.547Z,6.73
2019-02-08T14:44:03.100Z,11.23
2019-02-08T14:49:26.787Z,9.63
2019-02-08T14:55:05.828Z,11.87
2019-02-08T14:57:54.985Z,9.67
2019-02-08T15:00:55.508Z,10.03
2019-02-08T15:07:03.446Z,18.10
2019-02-08T15:09:51.860Z,11.00
2019-02-08T15:12:33.233Z,13.20
2019-02-08T15:15:14.560Z,15.13
2019-02-08T15:17:55.544Z,6.23
2019-02-08T15:20:39.139Z,14.13
2019-02-08T15:23:08.300Z,12.23
2019-02-08T15:25:39.742Z,11.57
2019-02-08T15:28:28.114Z,11.57
2019-02-08T15:31:35.456Z,13.40
2019-02-08T15:34:16.941Z,15.23
2019-02-08T15:36:57.740Z,9.20
2019-02-08T15:39:39.078Z,7.63
2019-02-08T15:42:20.227Z,9.87
2019-02-08T15:45:01.720Z,5.63
2019-02-08T15:47:43.023Z,7.10
2019-02-08T15:50:24.495Z,15.37
2019-02-08T15:53:05.546Z,9.17
2019-02-08T15:55:36.227Z,9.77
2019-02-08T15:58:25.391Z,7.30
2019-02-08T16:01:13.971Z,7.37
2019-02-08T16:03:55.044Z,9.23
2019-02-08T16:06:38.723Z,9.73
2019-02-08T16:12:26.166Z,6.40
2019-02-08T16:15:07.285Z,10.90
2019-02-08T16:17:48.954Z,11.97
2019-02-08T16:20:30.140Z,3.50
2019-02-08T16:23:18.592Z,10.80
2019-02-08T16:25:59.484Z,11.20
2019-02-08T16:28:40.912Z,10.37
2019-02-08T16:31:22.268Z,9.53
2019-02-08T16:34:04.278Z,6.47
2019-02-08T16:36:45.322Z,12.73
2019-02-08T16:39:14.629Z,7.73
2019-02-08T16:45:03.715Z,10.43
2019-02-08T16:47:44.318Z,6.33
2019-02-08T16:50:35.284Z,11.37
2019-02-08T16:53:16.693Z,17.50
2019-02-08T16:55:57.587Z,7.70
2019-02-08T16:58:38.786Z,5.87
2019-02-08T17:01:10.398Z,7.17
2019-02-08T17:07:01.219Z,9.23
2019-02-08T17:09:43.469Z,7.63
2019-02-08T17:12:25.106Z,7.60
2019-02-08T17:15:06.408Z,8.37
2019-02-08T17:23:18.710Z,10.47
2019-02-08T17:25:47.870Z,8.03
2019-02-08T17:28:17.041Z,13.63
2019-02-08T17:31:05.590Z,8.90
2019-02-08T17:33:49.384Z,8.13
2019-02-08T17:36:30.124Z,8.17
2019-02-08T17:39:12.546Z,11.90
2019-02-08T17:41:55.484Z,8.13
2019-02-08T17:44:37.504Z,7.57
2019-02-08T17:47:19.270Z,12.43
2019-02-08T17:50:00.266Z,11.90
2019-02-08T17:52:42.924Z,10.70
2019-02-08T17:55:24.016Z,12.77
2019-02-08T18:01:15.989Z,11.93
2019-02-08T18:03:58.787Z,7.17
2019-02-08T18:06:40.419Z,6.03
2019-02-08T18:09:21.497Z,7.33
2019-02-08T18:12:02.305Z,7.97
2019-02-08T18:14:43.813Z,13.27
2019-02-08T18:17:25.333Z,8.50
2019-02-08T18:20:07.325Z,8.57
2019-02-08T18:22:49.393Z,10.47
2019-02-08T18:25:30.259Z,12.10
2019-02-08T18:28:11.431Z,8.73
2019-02-08T18:30:52.420Z,12.70
2019-02-08T18:33:33.397Z,10.00
2019-02-08T18:36:14.335Z,5.40
2019-02-08T18:38:57.357Z,6.83
2019-02-08T18:41:38.586Z,9.23
2019-02-08T18:44:19.095Z,12.53
2019-02-08T18:46:59.610Z,14.60
2019-02-08T18:49:40.535Z,11.13
2019-02-08T18:52:21.858Z,11.07
2019-02-08T18:55:03.422Z,9.17
2019-02-08T18:57:43.911Z,5.83
2019-02-08T19:00:25.476Z,8.13
2019-02-08T19:03:08.646Z,12.97
2019-02-08T19:05:37.790Z,10.43
2019-02-08T19:08:07.072Z,10.77
2019-02-08T19:17:08.933Z,11.13
2019-02-08T19:19:52.489Z,7.13
2019-02-08T19:22:33.523Z,7.93
2019-02-08T19:25:16.329Z,10.83
2019-02-08T19:27:57.371Z,8.50
2019-02-08T19:30:39.703Z,18.97
2019-02-08T19:33:20.881Z,5.90
2019-02-08T19:36:01.470Z,10.60
2019-02-08T19:38:42.701Z,11.27
2019-02-08T19:41:23.999Z,13.70
2019-02-08T19:44:04.889Z,11.60
2019-02-08T19:46:46.347Z,10.53
2019-02-08T19:49:29.217Z,9.70
2019-02-08T19:52:10.129Z,10.17
2019-02-08T19:54:52.174Z,6.33
2019-02-08T19:57:21.396Z,10.00
2019-02-08T20:00:11.726Z,11.53
2019-02-08T20:03:04.726Z,12.27
2019-02-08T20:05:46.939Z,13.40
2019-02-08T20:08:28.122Z,10.30
2019-02-08T20:11:10.016Z,6.47
2019-02-08T20:13:51.922Z,9.77
2019-02-08T20:16:34.522Z,10.70
2019-02-08T20:19:15.872Z,11.67
2019-02-08T20:21:46.040Z,6.80
2019-02-08T20:24:37.478Z,12.00
2019-02-08T20:27:20.746Z,11.00
2019-02-08T20:30:01.862Z,11.07
2019-02-08T20:32:43.997Z,7.63
2019-02-08T20:35:24.447Z,13.03
2019-02-08T20:38:05.937Z,10.80
2019-02-08T20:40:48.889Z,13.10
2019-02-08T20:43:30.752Z,6.77
2019-02-08T20:46:00.562Z,6.40
2019-02-08T20:49:07.943Z,7.20
2019-02-08T20:51:56.955Z,8.20
2019-02-08T20:54:37.978Z,12.73
2019-02-08T21:00:02.503Z,10.13
2019-02-08T21:02:51.600Z,19.47
2019-02-08T21:05:32.876Z,11.33
2019-02-08T21:08:13.866Z,15.73
2019-02-08T21:10:57.440Z,14.83
2019-02-08T21:13:38.716Z,18.20
2019-02-08T21:16:07.944Z,15.33
2019-02-08T21:18:56.708Z,16.60
2019-02-08T21:21:45.093Z,15.20
2019-02-08T21:27:38.736Z,14.13
2019-02-08T21:30:09.840Z,16.03
2019-02-08T21:33:17.159Z,12.07
2019-02-08T21:39:06.673Z,15.17
2019-02-08T21:41:47.807Z,12.57
2019-02-08T21:44:28.805Z,8.23
2019-02-08T21:47:09.995Z,15.33
2019-02-08T21:49:51.571Z,12.30
2019-02-08T21:52:32.717Z,7.63
2019-02-08T21:55:15.828Z,11.73
2019-02-08T21:57:45.774Z,10.13
2019-02-08T22:00:34.591Z,10.70
2019-02-08T22:03:22.868Z,10.20
2019-02-08T22:06:03.924Z,11.87
2019-02-08T22:08:45.512Z,17.90
2019-02-08T22:11:26.832Z,10.70
2019-02-08T22:14:08.280Z,10.30
2019-02-08T22:16:51.508Z,9.80
2019-02-08T22:19:34.478Z,7.10
2019-02-08T22:22:15.131Z,11.13
2019-02-08T22:24:45.826Z,12.60
2019-02-08T22:30:28.713Z,11.63
2019-02-08T22:33:10.696Z,9.87
2019-02-08T22:35:51.698Z,12.03
2019-02-08T22:38:21.151Z,11.93
2019-02-08T22:41:09.421Z,6.83
2019-02-08T22:43:40.769Z,7.70
2019-02-08T22:46:29.050Z,12.07
2019-02-08T22:49:10.173Z,12.80
2019-02-08T22:51:51.641Z,12.90
2019-02-08T22:57:40.017Z,11.17
2019-02-08T23:00:22.013Z,12.73
2019-02-08T23:05:50.440Z,15.57
2019-02-08T23:08:39.410Z,9.17
2019-02-08T23:11:08.539Z,11.30
2019-02-08T23:13:37.663Z,12.27
2019-02-08T23:16:26.371Z,10.40
2019-02-08T23:19:07.319Z,13.70
2019-02-08T23:21:48.096Z,11.03
2019-02-08T23:24:29.172Z,14.23
2019-02-08T23:27:10.813Z,11.50
2019-02-08T23:29:51.550Z,12.67
2019-02-08T23:32:32.248Z,8.80
2019-02-08T23:35:13.460Z,8.70
2019-02-08T23:37:53.990Z,9.60
2019-02-08T23:40:34.990Z,12.07
2019-02-08T23:43:16.240Z,12.07
2019-02-08T23:45:46.248Z,9.87
2019-02-08T23:48:34.507Z,8.57
2019-02-08T23:51:17.279Z,9.87
2019-02-08T23:53:58.613Z,14.50
2019-02-08T23:56:39.536Z,9.83
2019-02-08T23:59:20.635Z,7.43
